Bei Facebook empfehlenBei Twitter postenGoogle plusPinterest

Das Wetter im Erzgebirge am 05.05.2017

Wetter und Klima am 05.05.2017 Holzhau im Erzgebirge (630m ü.NN)
Letzte gemessene Temperatur und Uhrzeit der Messung23:45:00 Uhr6.90 °C
Temperatur (Maximum / Höchstwert) und Uhrzeit der Messung16:15:00 Uhr9.20 °C
Temperatur (Minimum / Tiefstwert) und Uhrzeit der Messung06:00:005.30 °C
Errechneter Absolutwert der Temperaturschwankungen zwischen Tmin und Tmax des Tages3.90 K
Errechnete Tagesmitteltemperatur7.12396 °C
Gesamt - Niederschlag des Tages (in flüssiger Form)0.52 Liter / m²
Luftdruck (Maximum / Höchstwert) und Zeitpunkt der Messung21:00:00 Uhr1015.60 hPa
Luftdruck (Minimum / Tiefstwert) und Zeitpunkt der Messung02:15:00 Uhr1011.60 hPa
Errechneter Absolutwert der Luftdruckschwankungen des Tages4.00 hPa
Höchste gemessene Windgeschwindigkeit und Uhrzeit der Messung14:00:00 Uhr6.48 km/h
Errechnete Windhäufigkeit in Relation zu den Messwerten des Tages1.04167 %
Niedrigste Windkühle (Windchill) und Zeitpunkt der Messung06:00:00 Uhr5.30 °C
Taupunkt (Maximum / Höchstwert) und Uhrzeit der Messung16:00:00 Uhr7.10 °C
Taupunkt (Minimum / Tiefstwert) und Uhrzeit der Messung06:00:004.40 °C
Anzahl der automatisch eingelesenen Messwerte 96

Detaillierte Wetter- und Klima- Messwerte für den 05.05.2017 in Holzhau im Erzgebirge (630m ü.NN)
ZeitTemperaturLuftdruckRel. LuftfeuchteWindWindrichtungWindchillTaupunktNiederschlag l/m²
23:45:006.90 °C1015.00 hPa92.00 %5.70 °C0.52
23:30:007.00 °C1015.00 hPa93.00 %5.90 °C0.52
23:15:007.00 °C1015.20 hPa92.00 %5.80 °C0.52
23:00:007.00 °C1015.20 hPa92.00 %5.80 °C0.52
22:45:007.00 °C1015.30 hPa92.00 %5.80 °C0.52
22:30:007.10 °C1015.40 hPa92.00 %5.90 °C0.52
22:15:007.10 °C1015.30 hPa92.00 %5.90 °C 
22:00:007.10 °C1015.30 hPa92.00 %5.90 °C 
21:45:007.10 °C1015.30 hPa92.00 %5.90 °C 
21:30:007.10 °C1015.30 hPa92.00 %5.90 °C 
21:15:007.10 °C1015.30 hPa92.00 %5.90 °C 
21:00:007.20 °C1015.60 hPa92.00 %6.00 °C 
20:45:007.10 °C1015.40 hPa92.00 %5.90 °C 
20:30:007.30 °C1015.40 hPa91.00 %5.90 °C 
20:15:007.30 °C1015.30 hPa91.00 %5.90 °C 
20:00:007.40 °C1015.20 hPa90.00 %5.90 °C 
19:45:007.60 °C1015.20 hPa90.00 %6.10 °C 
19:30:007.70 °C1015.10 hPa89.00 %6.00 °C 
19:15:007.80 °C1015.00 hPa89.00 %6.10 °C 
19:00:007.90 °C1014.90 hPa89.00 %6.20 °C 
18:45:008.10 °C1014.80 hPa88.00 %6.20 °C 
18:30:008.10 °C1015.00 hPa88.00 %6.20 °C 
18:15:008.20 °C1014.80 hPa88.00 %6.30 °C 
18:00:008.20 °C1014.90 hPa88.00 %6.30 °C 
17:45:008.30 °C1014.90 hPa87.00 %6.30 °C 
17:30:008.30 °C1015.10 hPa87.00 %6.30 °C 
17:15:008.40 °C1015.00 hPa87.00 %6.40 °C 
17:00:008.50 °C1015.10 hPa86.00 %6.30 °C 
16:45:008.60 °C1015.10 hPa86.00 %6.40 °C 
16:30:009.00 °C1014.90 hPa85.00 %6.60 °C 
16:15:009.20 °C1014.80 hPa86.00 %7.00 °C 
16:00:009.10 °C1014.80 hPa87.00 %7.10 °C 
15:45:008.90 °C1014.80 hPa87.00 %6.90 °C 
15:30:008.90 °C1014.80 hPa87.00 %6.90 °C 
15:15:009.00 °C1014.70 hPa87.00 %7.00 °C 
15:00:008.80 °C1014.70 hPa88.00 %6.90 °C 
14:45:008.50 °C1014.80 hPa88.00 %6.60 °C 
14:30:008.50 °C1014.80 hPa86.00 %6.30 °C 
14:15:008.60 °C1014.70 hPa87.00 %6.60 °C 
14:00:008.40 °C1014.70 hPa86.00 %6.48 km/hWNW7.50 °C6.20 °C 
13:45:008.40 °C1014.40 hPa86.00 %6.20 °C 
13:30:008.50 °C1014.40 hPa85.00 %6.10 °C 
13:15:008.90 °C1014.20 hPa85.00 %6.50 °C 
13:00:008.90 °C1014.20 hPa85.00 %6.50 °C 
12:45:008.80 °C1014.20 hPa85.00 %6.40 °C 
12:30:009.00 °C1014.10 hPa84.00 %6.40 °C 
12:15:009.10 °C1014.00 hPa85.00 %6.70 °C 
12:00:009.00 °C1013.90 hPa86.00 %6.80 °C 
11:45:008.80 °C1014.00 hPa85.00 %6.40 °C 
11:30:008.70 °C1013.80 hPa86.00 %6.50 °C 
11:15:008.30 °C1013.80 hPa88.00 %6.40 °C 
11:00:008.10 °C1013.70 hPa88.00 %6.20 °C 
10:45:008.20 °C1013.60 hPa89.00 %6.50 °C 
10:30:008.30 °C1013.50 hPa91.00 %6.90 °C 
10:15:007.70 °C1013.40 hPa93.00 %6.60 °C 
10:00:007.20 °C1013.30 hPa93.00 %6.10 °C 
09:45:006.90 °C1013.20 hPa94.00 %6.00 °C 
09:30:006.90 °C1013.20 hPa94.00 %6.00 °C 
09:15:006.70 °C1013.30 hPa94.00 %5.80 °C 
09:00:006.40 °C1013.20 hPa95.00 %5.70 °C 
08:45:006.20 °C1013.20 hPa95.00 %5.50 °C 
08:30:006.20 °C1013.30 hPa95.00 %5.50 °C 
08:15:005.90 °C1013.20 hPa95.00 %5.20 °C 
08:00:005.90 °C1013.10 hPa95.00 %5.20 °C 
07:45:005.90 °C1013.00 hPa95.00 %5.20 °C 
07:30:005.80 °C1013.00 hPa95.00 %5.10 °C 
07:15:005.60 °C1012.80 hPa95.00 %4.90 °C 
07:00:005.60 °C1012.60 hPa95.00 %4.90 °C 
06:45:005.50 °C1012.60 hPa95.00 %4.80 °C 
06:30:005.40 °C1012.40 hPa95.00 %4.70 °C 
06:15:005.40 °C1012.40 hPa95.00 %4.70 °C 
06:00:005.30 °C1012.40 hPa94.00 %4.40 °C 
05:45:005.30 °C1012.30 hPa94.00 %4.40 °C 
05:30:005.30 °C1012.30 hPa94.00 %4.40 °C 
05:15:005.30 °C1012.10 hPa94.00 %4.40 °C 
05:00:005.30 °C1012.10 hPa94.00 %4.40 °C 
04:45:005.40 °C1012.00 hPa94.00 %4.50 °C 
04:30:005.40 °C1011.90 hPa94.00 %4.50 °C 
04:15:005.40 °C1011.90 hPa94.00 %4.50 °C 
04:00:005.40 °C1012.00 hPa93.00 %4.40 °C 
03:45:005.50 °C1011.90 hPa93.00 %4.50 °C 
03:30:005.60 °C1011.90 hPa93.00 %4.60 °C 
03:15:005.60 °C1011.80 hPa93.00 %4.60 °C 
03:00:005.60 °C1011.70 hPa93.00 %4.60 °C 
02:45:005.60 °C1011.70 hPa93.00 %4.60 °C 
02:30:005.70 °C1011.70 hPa93.00 %4.70 °C 
02:15:005.80 °C1011.60 hPa93.00 %4.80 °C 
02:00:005.80 °C1011.80 hPa93.00 %4.80 °C 
01:45:005.80 °C1011.80 hPa93.00 %4.80 °C 
01:30:005.90 °C1011.90 hPa93.00 %4.90 °C 
01:15:005.90 °C1011.90 hPa92.00 %4.70 °C 
01:00:006.00 °C1011.70 hPa92.00 %4.80 °C 
00:45:006.10 °C1011.90 hPa91.00 %4.70 °C 
00:30:006.10 °C1012.00 hPa91.00 %4.70 °C 
00:15:006.10 °C1012.10 hPa91.00 %4.70 °C 
00:00:006.10 °C1012.10 hPa91.00 %4.70 °C 

Permanenter Link zu dieser Seite: Wetter im Erzgebirge am 05.05.2017
Performance-Info: Die Erstellung der Seite / Statistik(en) / Tabelle(n) erforderte 5 Datenbankserver-Abfrage(n) und dauerte 122 Millisekunden. (Dieser Messwert ist von der Gesamt-Auslastung des Servers abhängig.)
Erzgebirge - Wetter | Erzgebirge - Wetter (Mobilgeräte) | Komplette Klimadatenbank